Time;durP1;ratioP1;P1;durP2;ratioP2;P2;SDS_P1;SDS_P2;PMS_P1;PMS_P2;Temp;Humidity;BMP_temperature;BMP_pressure;BME280_temperature;BME280_humidity;BME280_pressure;Samples;Min_cycle;Max_cycle;Signal;HPM_P1;HPM_P2
2022/04/01 00:00:02;;;;;;;26.17;15.05;;;4.70;58.60;;;;;;7357184;19;20017;-62
2022/04/01 00:02:32;;;;;;;28.20;15.90;;;4.80;59.00;;;;;;7363007;19;20443;-62
2022/04/01 00:05:06;;;;;;;30.98;16.33;;;4.80;58.90;;;;;;7380887;19;20356;-62
2022/04/01 00:07:38;;;;;;;33.15;16.65;;;4.80;58.90;;;;;;7357662;19;20102;-62
2022/04/01 00:10:09;;;;;;;32.08;16.98;;;4.80;58.80;;;;;;7357617;19;20006;-62
2022/04/01 00:12:43;;;;;;;28.65;16.17;;;4.70;58.60;;;;;;7360834;19;20011;-62
2022/04/01 00:15:15;;;;;;;30.17;15.45;;;4.80;59.30;;;;;;7361556;19;20018;-61
2022/04/01 00:17:46;;;;;;;27.38;15.57;;;4.70;58.60;;;;;;7358585;19;20018;-61
2022/04/01 00:20:19;;;;;;;25.15;14.95;;;4.70;58.20;;;;;;7378375;19;20018;-62
2022/04/01 00:22:50;;;;;;;25.55;14.63;;;4.60;56.90;;;;;;7362025;19;21352;-63
2022/04/01 00:25:20;;;;;;;23.88;13.55;;;4.60;56.40;;;;;;7361927;19;20003;-63
2022/04/01 00:27:50;;;;;;;25.75;14.38;;;4.60;56.80;;;;;;7360241;19;20022;-63
2022/04/01 00:30:21;;;;;;;27.17;14.73;;;4.60;57.30;;;;;;7356336;19;20014;-61
2022/04/01 00:32:51;;;;;;;24.80;14.48;;;4.50;56.40;;;;;;7362904;19;20014;-62
2022/04/01 00:35:24;;;;;;;23.73;14.23;;;4.60;55.90;;;;;;7388747;19;20015;-62
2022/04/01 00:37:54;;;;;;;28.00;15.13;;;4.60;55.80;;;;;;7368754;19;20014;-62
2022/04/01 00:40:24;;;;;;;25.75;13.85;;;4.50;55.40;;;;;;7363234;19;20010;-61
2022/04/01 00:42:54;;;;;;;27.33;14.85;;;4.50;55.80;;;;;;7367382;19;20028;-61
2022/04/01 00:45:24;;;;;;;25.85;14.80;;;4.50;56.00;;;;;;7365716;19;20014;-61
2022/04/01 00:47:54;;;;;;;25.42;14.43;;;4.50;56.60;;;;;;7368327;19;20050;-62
2022/04/01 00:50:27;;;;;;;26.08;14.98;;;4.50;55.80;;;;;;7384377;19;20494;-62
2022/04/01 00:52:57;;;;;;;23.35;13.65;;;4.50;56.80;;;;;;7366848;19;20034;-62
2022/04/01 00:55:28;;;;;;;27.08;15.02;;;4.50;56.10;;;;;;7365544;19;20018;-62
2022/04/01 00:57:58;;;;;;;27.52;14.52;;;4.40;56.80;;;;;;7366907;19;20018;-62
2022/04/01 01:00:29;;;;;;;26.13;14.18;;;4.50;57.00;;;;;;7362163;19;20038;-62
2022/04/01 01:02:58;;;;;;;24.90;14.95;;;4.40;57.20;;;;;;7367846;19;20082;-62
2022/04/01 01:05:32;;;;;;;29.42;14.98;;;4.40;56.60;;;;;;7363996;19;20033;-63
2022/04/01 01:08:05;;;;;;;27.30;15.30;;;4.40;56.70;;;;;;7388393;19;20100;-62
2022/04/01 01:10:37;;;;;;;29.15;15.82;;;4.40;57.00;;;;;;7362271;19;20080;-62
2022/04/01 01:13:07;;;;;;;25.60;14.80;;;4.30;56.60;;;;;;7365650;19;20010;-62
2022/04/01 01:15:37;;;;;;;26.63;15.75;;;4.30;57.60;;;;;;7363092;19;20014;-62
2022/04/01 01:18:07;;;;;;;30.05;16.33;;;4.40;58.00;;;;;;7366816;19;20015;-62
2022/04/01 01:20:41;;;;;;;25.30;15.07;;;4.30;58.10;;;;;;7360991;19;20758;-61
2022/04/01 01:23:12;;;;;;;29.90;16.55;;;4.40;58.30;;;;;;7389486;19;20339;-63
2022/04/01 01:25:45;;;;;;;26.23;14.60;;;4.30;57.40;;;;;;7363438;19;20667;-62
2022/04/01 01:28:16;;;;;;;24.92;14.20;;;4.30;57.80;;;;;;7365480;19;20011;-63
2022/04/01 01:30:46;;;;;;;26.88;14.95;;;4.30;57.60;;;;;;7361766;19;20014;-62
2022/04/01 01:33:21;;;;;;;24.33;13.70;;;4.20;57.50;;;;;;7366578;19;20011;-62
2022/04/01 01:35:54;;;;;;;27.63;14.70;;;4.30;57.80;;;;;;7362776;19;20465;-63
2022/04/01 01:38:24;;;;;;;28.30;15.02;;;4.20;56.10;;;;;;7388612;19;20534;-62
2022/04/01 01:40:58;;;;;;;25.25;14.43;;;4.20;56.30;;;;;;7362122;19;20018;-62
2022/04/01 01:43:29;;;;;;;24.52;13.90;;;4.20;55.70;;;;;;7365117;19;20007;-63
2022/04/01 01:45:59;;;;;;;25.55;13.82;;;4.20;55.40;;;;;;7363680;19;20099;-62
2022/04/01 01:48:30;;;;;;;23.92;13.02;;;4.20;53.70;;;;;;7366249;19;20073;-63
2022/04/01 01:56:28;;;;;;;26.63;15.10;;;4.20;55.00;;;;;;7383226;19;20014;-62
2022/04/01 01:58:58;;;;;;;24.40;14.32;;;4.20;54.80;;;;;;7361328;19;20010;-62
2022/04/01 02:01:28;;;;;;;26.33;14.70;;;4.30;56.70;;;;;;7363951;19;20098;-62
2022/04/01 02:04:00;;;;;;;22.35;13.77;;;4.10;55.60;;;;;;7363163;19;20015;-63
2022/04/01 02:06:30;;;;;;;24.35;13.77;;;4.20;56.60;;;;;;7362528;19;20014;-62
2022/04/01 02:09:00;;;;;;;24.63;13.88;;;4.10;56.70;;;;;;7363264;19;20518;-62
2022/04/01 02:11:37;;;;;;;27.00;14.15;;;4.10;55.90;;;;;;7362353;19;20052;-62
2022/04/01 02:14:07;;;;;;;24.05;14.30;;;4.10;56.40;;;;;;7384837;19;20034;-62
2022/04/01 02:16:37;;;;;;;21.17;12.70;;;4.00;55.10;;;;;;7360652;19;20011;-62
2022/04/01 02:19:09;;;;;;;24.25;13.55;;;4.00;53.80;;;;;;7364022;19;20031;-61
2022/04/01 02:21:39;;;;;;;24.02;13.25;;;4.00;53.40;;;;;;7362331;19;20359;-61
2022/04/01 02:24:10;;;;;;;23.70;14.15;;;4.00;53.40;;;;;;7365330;19;20098;-61
2022/04/01 02:26:43;;;;;;;22.05;13.13;;;4.00;54.20;;;;;;7361755;19;20044;-62
2022/04/01 02:29:13;;;;;;;21.98;13.45;;;4.00;53.40;;;;;;7384382;19;20022;-61
2022/04/01 02:31:44;;;;;;;19.80;12.27;;;4.00;53.50;;;;;;7361967;19;20049;-62
2022/04/01 02:34:14;;;;;;;23.85;13.45;;;4.00;53.90;;;;;;7361690;19;20014;-62
2022/04/01 02:36:44;;;;;;;19.90;12.73;;;3.90;53.50;;;;;;7360718;19;20081;-63
2022/04/01 02:39:14;;;;;;;22.98;13.23;;;3.90;54.00;;;;;;7363596;19;20006;-62
2022/04/01 02:41:48;;;;;;;20.38;11.95;;;3.90;53.40;;;;;;7360640;19;20483;-61
2022/04/01 02:44:18;;;;;;;24.43;13.13;;;3.90;53.50;;;;;;7385862;19;20011;-62
2022/04/01 02:46:48;;;;;;;20.83;13.30;;;3.90;53.70;;;;;;7361177;19;20255;-61
2022/04/01 02:49:20;;;;;;;20.55;12.45;;;3.90;54.00;;;;;;7362024;19;20010;-61
2022/04/01 02:51:53;;;;;;;22.00;12.75;;;3.90;54.50;;;;;;7361161;19;20077;-61
2022/04/01 02:54:23;;;;;;;20.23;12.10;;;3.90;54.50;;;;;;7360453;19;20018;-61
2022/04/01 02:56:55;;;;;;;22.45;12.75;;;3.90;55.40;;;;;;7360291;19;20082;-61
2022/04/01 02:59:25;;;;;;;21.60;12.32;;;3.90;55.10;;;;;;7384939;19;20015;-61
2022/04/01 03:01:55;;;;;;;22.50;13.07;;;3.90;55.40;;;;;;7360902;19;20011;-61
2022/04/01 03:04:25;;;;;;;21.67;12.68;;;4.00;55.30;;;;;;7361376;19;20015;-62
2022/04/01 03:06:55;;;;;;;25.40;14.23;;;3.90;55.00;;;;;;7359182;19;20482;-62
2022/04/01 03:09:25;;;;;;;24.38;13.20;;;4.00;56.30;;;;;;7363018;19;20010;-62
2022/04/01 03:11:58;;;;;;;24.35;14.48;;;4.00;56.30;;;;;;7360774;19;20006;-62
2022/04/01 03:14:28;;;;;;;22.45;12.40;;;3.90;56.60;;;;;;7370649;19;20010;-61
2022/04/01 03:16:58;;;;;;;24.63;14.25;;;3.90;56.20;;;;;;7377409;19;20018;-61
2022/04/01 03:19:29;;;;;;;24.42;13.40;;;4.00;56.80;;;;;;7359508;19;20021;-61
2022/04/01 03:22:00;;;;;;;24.60;15.30;;;4.00;56.60;;;;;;7356974;19;20018;-61
2022/04/01 03:24:30;;;;;;;23.52;13.70;;;3.90;56.80;;;;;;7361185;19;20101;-62
2022/04/01 03:27:02;;;;;;;23.83;13.98;;;4.00;57.30;;;;;;7359093;19;20018;-61
2022/04/01 03:29:32;;;;;;;19.98;12.65;;;3.80;56.10;;;;;;7382164;19;20027;-61
2022/04/01 03:32:02;;;;;;;20.70;12.80;;;3.80;55.50;;;;;;7359572;19;20509;-61
2022/04/01 03:34:33;;;;;;;22.55;13.68;;;3.80;55.20;;;;;;7358554;19;20126;-62
2022/04/01 03:37:05;;;;;;;21.23;12.90;;;3.80;54.90;;;;;;7358894;19;20010;-61
2022/04/01 03:39:35;;;;;;;21.25;12.90;;;3.80;55.20;;;;;;7361609;19;20117;-62
2022/04/01 03:42:08;;;;;;;22.55;13.05;;;3.80;55.00;;;;;;7359817;19;20046;-60
2022/04/01 03:44:41;;;;;;;21.73;12.68;;;3.70;54.40;;;;;;7384000;19;20019;-61
2022/04/01 03:47:14;;;;;;;21.27;12.35;;;3.80;54.70;;;;;;7358486;19;20018;-61
2022/04/01 03:49:50;;;;;;;18.65;11.95;;;3.70;54.10;;;;;;7359664;19;20006;-62
2022/04/01 03:52:21;;;;;;;20.95;13.05;;;3.80;54.90;;;;;;7359558;19;20010;-61
2022/04/01 03:54:54;;;;;;;20.30;12.35;;;3.80;54.40;;;;;;7360332;19;20018;-61
2022/04/01 03:57:37;;;;;;;18.92;12.30;;;3.70;54.70;;;;;;7356982;19;20557;-61
2022/04/01 04:00:12;;;;;;;19.50;12.10;;;3.70;53.80;;;;;;7360320;19;20030;-61
2022/04/01 04:02:44;;;;;;;19.70;11.90;;;3.70;54.80;;;;;;7382840;19;20013;-61
2022/04/01 04:05:14;;;;;;;18.73;11.68;;;3.70;53.40;;;;;;7360482;19;20027;-62
2022/04/01 04:07:44;;;;;;;18.65;12.73;;;3.60;54.10;;;;;;7358498;19;20011;-62
2022/04/01 04:10:14;;;;;;;18.63;11.48;;;3.60;55.00;;;;;;7367244;19;20074;-61
2022/04/01 04:12:49;;;;;;;20.05;12.70;;;3.60;55.10;;;;;;7368173;19;20731;-61
2022/04/01 04:15:19;;;;;;;18.05;11.52;;;3.60;54.70;;;;;;7368559;19;20441;-61
2022/04/01 04:17:55;;;;;;;19.20;11.77;;;3.60;55.70;;;;;;7366192;19;20018;-61
2022/04/01 04:20:35;;;;;;;20.23;12.55;;;3.60;55.50;;;;;;7387270;19;20086;-60
2022/04/01 04:23:13;;;;;;;17.35;12.10;;;3.60;55.20;;;;;;7369687;19;20081;-60
2022/04/01 04:25:55;;;;;;;20.48;12.63;;;3.60;55.80;;;;;;7363534;19;20269;-61
2022/04/01 04:28:29;;;;;;;19.27;12.63;;;3.60;55.90;;;;;;7368654;19;20022;-61
2022/04/01 04:31:07;;;;;;;19.65;12.02;;;3.50;54.60;;;;;;7365762;19;20019;-61
2022/04/01 04:33:45;;;;;;;19.80;12.73;;;3.50;54.90;;;;;;7368436;19;20010;-61
2022/04/01 04:36:19;;;;;;;19.10;12.00;;;3.50;55.40;;;;;;7363907;19;20014;-60
2022/04/01 04:38:52;;;;;;;22.20;13.07;;;3.40;55.10;;;;;;7366592;19;20007;-60
2022/04/01 04:41:22;;;;;;;19.23;11.25;;;3.50;55.60;;;;;;7387322;19;20014;-61
2022/04/01 04:43:56;;;;;;;21.45;12.27;;;3.50;55.40;;;;;;7366758;19;20030;-60
2022/04/01 04:46:26;;;;;;;18.10;11.98;;;3.40;55.10;;;;;;7361819;19;20015;-61
2022/04/01 04:48:57;;;;;;;20.65;12.63;;;3.50;56.00;;;;;;7365239;19;20405;-62
2022/04/01 04:51:29;;;;;;;19.35;11.90;;;3.50;55.60;;;;;;7365221;19;20022;-63
2022/04/01 04:54:00;;;;;;;19.98;12.55;;;3.60;56.90;;;;;;7367087;19;20111;-61
2022/04/01 04:56:32;;;;;;;23.80;13.60;;;3.50;56.20;;;;;;7382928;19;20021;-61
2022/04/01 04:59:05;;;;;;;19.85;12.93;;;3.60;56.60;;;;;;7365068;19;20010;-61
2022/04/01 05:01:41;;;;;;;19.20;12.30;;;3.40;56.20;;;;;;7363710;19;20054;-61
2022/04/01 05:04:32;;;;;;;16.15;10.85;;;3.40;56.40;;;;;;7366606;19;20015;-61
2022/04/01 05:07:16;;;;;;;17.45;11.13;;;3.40;56.20;;;;;;7361416;19;20379;-61
2022/04/01 05:09:54;;;;;;;14.38;9.93;;;3.40;56.00;;;;;;7365034;19;20038;-60
2022/04/01 05:12:32;;;;;;;15.35;10.13;;;3.40;55.40;;;;;;7364327;19;20006;-61
2022/04/01 05:15:13;;;;;;;14.25;9.27;;;3.40;55.40;;;;;;7366083;19;20089;-60
2022/04/01 05:17:56;;;;;;;14.73;9.45;;;3.40;56.00;;;;;;7375614;19;20020;-61
2022/04/01 05:20:30;;;;;;;14.75;10.02;;;3.40;55.20;;;;;;7383872;19;20014;-62
2022/04/01 05:23:11;;;;;;;14.50;8.98;;;3.30;55.20;;;;;;7365901;19;20018;-61
2022/04/01 05:25:45;;;;;;;12.32;8.73;;;3.30;54.20;;;;;;7363997;19;20010;-60
2022/04/01 05:28:24;;;;;;;13.20;9.02;;;3.20;52.80;;;;;;7366011;19;20023;-60
2022/04/01 05:31:06;;;;;;;16.40;9.63;;;3.30;54.70;;;;;;7364365;19;20394;-61
2022/04/01 05:33:44;;;;;;;13.52;9.20;;;3.20;53.40;;;;;;7365964;19;20014;-61
2022/04/01 05:36:15;;;;;;;16.52;10.38;;;3.20;53.60;;;;;;7362519;19;20017;-61
2022/04/01 05:38:45;;;;;;;15.98;10.48;;;3.20;52.60;;;;;;7365388;19;20014;-63
2022/04/01 05:41:19;;;;;;;15.13;10.30;;;3.20;52.90;;;;;;7384926;19;20014;-60
2022/04/01 05:43:50;;;;;;;15.77;10.35;;;3.20;53.30;;;;;;7364742;19;20413;-62
2022/04/01 05:46:24;;;;;;;15.23;9.93;;;3.30;53.80;;;;;;7363582;19;20198;-61
2022/04/01 05:48:56;;;;;;;16.83;10.63;;;3.20;53.60;;;;;;7365570;19;20018;-62
2022/04/01 05:51:27;;;;;;;13.95;9.57;;;3.20;52.80;;;;;;7361161;19;20074;-61
2022/04/01 05:53:59;;;;;;;16.42;9.63;;;3.20;52.80;;;;;;7365195;19;20015;-60
2022/04/01 05:56:32;;;;;;;16.58;10.30;;;3.20;54.10;;;;;;7383750;19;20047;-60
2022/04/01 05:59:02;;;;;;;16.95;10.75;;;3.30;54.00;;;;;;7363421;19;20391;-61
2022/04/01 06:01:45;;;;;;;16.63;9.88;;;3.20;54.90;;;;;;7360741;19;20014;-60
2022/04/01 06:04:39;;;;;;;16.05;10.73;;;3.20;54.60;;;;;;7364950;19;20137;-62
2022/04/01 06:07:12;;;;;;;17.13;10.33;;;3.20;53.90;;;;;;7361340;19;20397;-61
2022/04/01 06:09:51;;;;;;;17.20;10.52;;;3.10;53.50;;;;;;7364017;19;20251;-60
2022/04/01 06:12:31;;;;;;;15.68;10.25;;;3.20;54.00;;;;;;7359828;19;20006;-61
2022/04/01 06:15:09;;;;;;;17.95;11.43;;;3.20;54.10;;;;;;7362584;19;20021;-60
2022/04/01 06:17:49;;;;;;;16.75;10.43;;;3.20;54.10;;;;;;7382585;19;20014;-60
2022/04/01 06:20:20;;;;;;;16.08;9.98;;;3.20;54.10;;;;;;7363702;19;20022;-61
2022/04/01 06:22:57;;;;;;;14.73;9.40;;;3.30;54.40;;;;;;7358485;19;20017;-61
2022/04/01 06:25:32;;;;;;;16.27;9.50;;;3.20;53.30;;;;;;7361263;19;20450;-60
2022/04/01 06:28:16;;;;;;;16.10;10.35;;;3.40;54.80;;;;;;7363376;19;20041;-61
2022/04/01 06:30:49;;;;;;;17.40;10.18;;;3.30;54.20;;;;;;7358546;19;20014;-60
2022/04/01 06:33:35;;;;;;;15.30;9.68;;;3.30;54.70;;;;;;7363551;19;20025;-60
2022/04/01 06:36:07;;;;;;;15.18;9.73;;;3.30;53.30;;;;;;7362276;19;20043;-61
2022/04/01 06:38:43;;;;;;;15.85;9.82;;;3.30;53.60;;;;;;7384368;19;20078;-61
2022/04/01 06:41:20;;;;;;;14.13;9.40;;;3.30;54.70;;;;;;7359885;19;20094;-61
2022/04/01 06:43:50;;;;;;;15.77;10.27;;;3.30;54.10;;;;;;7362786;19;20090;-61
2022/04/01 06:46:20;;;;;;;15.50;9.82;;;3.20;52.80;;;;;;7361730;19;20066;-61
2022/04/01 06:48:52;;;;;;;14.55;9.23;;;3.20;53.80;;;;;;7362204;19;20010;-61
2022/04/01 06:51:22;;;;;;;14.32;9.77;;;3.20;52.80;;;;;;7360527;19;20014;-61
2022/04/01 06:53:53;;;;;;;14.57;9.60;;;3.20;53.30;;;;;;7362472;19;20433;-62
2022/04/01 06:56:23;;;;;;;12.25;8.15;;;3.20;53.40;;;;;;7383274;19;20132;-61
2022/04/01 06:58:53;;;;;;;13.73;8.55;;;3.10;52.20;;;;;;7362151;19;20014;-61
2022/04/01 07:01:23;;;;;;;13.05;9.00;;;3.00;52.30;;;;;;7359285;19;20014;-61
2022/04/01 07:03:55;;;;;;;12.30;8.32;;;3.00;52.70;;;;;;7360082;19;20484;-61
2022/04/01 07:06:25;;;;;;;12.45;8.45;;;3.10;52.70;;;;;;7360233;19;20501;-61
2022/04/01 07:08:55;;;;;;;12.55;7.85;;;3.20;52.80;;;;;;7363138;19;20013;-62
2022/04/01 07:11:26;;;;;;;10.18;7.20;;;3.10;52.20;;;;;;7381145;19;20043;-61
2022/04/01 07:13:56;;;;;;;11.13;7.22;;;3.10;51.60;;;;;;7361643;19;20010;-60
2022/04/01 07:16:26;;;;;;;10.23;7.45;;;3.10;52.70;;;;;;7360590;19;20030;-60
2022/04/01 07:18:58;;;;;;;10.27;6.65;;;3.00;52.50;;;;;;7361936;19;20021;-61
2022/04/01 07:21:30;;;;;;;12.25;7.57;;;3.10;53.30;;;;;;7359329;19;20012;-61
2022/04/01 07:24:01;;;;;;;12.02;6.72;;;3.10;52.80;;;;;;7356008;19;20031;-61
2022/04/01 07:26:31;;;;;;;10.57;6.75;;;3.00;52.60;;;;;;7382255;19;20454;-61
2022/04/01 07:29:01;;;;;;;10.00;6.90;;;3.00;52.10;;;;;;7361638;19;20011;-60
2022/04/01 07:34:33;;;;;;;10.98;7.05;;;3.20;52.80;;;;;;7359565;19;20070;-61
2022/04/01 07:37:03;;;;;;;9.80;6.50;;;3.00;53.20;;;;;;7358764;19;20015;-60
2022/04/01 07:39:33;;;;;;;11.10;7.22;;;3.10;52.70;;;;;;7361831;19;20010;-60
2022/04/01 07:42:04;;;;;;;11.13;7.20;;;3.10;52.70;;;;;;7361172;19;20109;-61
2022/04/01 07:44:34;;;;;;;11.70;6.93;;;3.10;52.60;;;;;;7389936;19;20143;-60
2022/04/01 07:47:09;;;;;;;12.15;7.40;;;3.20;52.80;;;;;;7367017;19;20035;-60
2022/04/01 07:49:41;;;;;;;12.73;7.80;;;3.10;51.30;;;;;;7369417;19;20011;-60
2022/04/01 07:52:21;;;;;;;11.38;6.90;;;3.20;52.70;;;;;;7363477;19;20073;-61
2022/04/01 07:54:52;;;;;;;9.82;6.57;;;3.00;50.00;;;;;;7367120;19;20011;-60
2022/04/01 07:57:23;;;;;;;11.55;6.95;;;2.90;50.50;;;;;;7365885;19;20038;-60
2022/04/01 07:59:53;;;;;;;10.90;7.07;;;2.80;49.20;;;;;;7368144;19;20074;-60
2022/04/01 08:02:23;;;;;;;10.93;6.75;;;2.90;51.20;;;;;;7386795;19;20026;-59
2022/04/01 08:04:55;;;;;;;10.48;6.88;;;3.00;51.90;;;;;;7366594;19;20083;-61
2022/04/01 08:07:26;;;;;;;10.85;6.20;;;2.90;48.60;;;;;;7366041;19;20118;-60
2022/04/01 08:09:58;;;;;;;11.00;6.28;;;2.90;51.00;;;;;;7369148;19;20007;-60
2022/04/01 08:12:28;;;;;;;9.70;6.57;;;2.90;51.50;;;;;;7364368;19;20043;-60
2022/04/01 08:14:58;;;;;;;11.52;7.10;;;2.90;51.90;;;;;;7366094;19;20022;-61
2022/04/01 08:17:28;;;;;;;10.23;6.25;;;3.00;52.60;;;;;;7386556;19;20491;-61
2022/04/01 08:20:00;;;;;;;11.18;6.22;;;2.90;51.50;;;;;;7366852;19;20010;-60
2022/04/01 08:22:30;;;;;;;9.68;6.20;;;3.00;51.70;;;;;;7363484;19;20081;-60
2022/04/01 08:25:00;;;;;;;10.95;6.80;;;3.00;52.50;;;;;;7368149;19;20035;-60
2022/04/01 08:27:30;;;;;;;9.90;6.40;;;2.90;50.70;;;;;;7365959;19;20101;-61
2022/04/01 08:30:00;;;;;;;9.05;6.10;;;2.80;51.00;;;;;;7367782;19;20031;-61
2022/04/01 08:32:32;;;;;;;10.18;6.57;;;2.70;48.80;;;;;;7385446;19;20010;-60
2022/04/01 08:35:06;;;;;;;12.50;7.18;;;2.70;51.00;;;;;;7365033;19;20514;-60
2022/04/01 08:37:36;;;;;;;10.95;7.18;;;2.60;50.10;;;;;;7361797;19;20403;-60
2022/04/01 08:40:07;;;;;;;11.20;7.35;;;2.60;50.70;;;;;;7366020;19;20081;-60
2022/04/01 08:42:37;;;;;;;10.85;7.00;;;2.60;51.20;;;;;;7364149;19;20109;-60
2022/04/01 08:45:11;;;;;;;10.75;7.05;;;2.80;53.10;;;;;;7365013;19;20073;-60
2022/04/01 08:47:42;;;;;;;10.75;6.55;;;2.80;52.50;;;;;;7386589;19;20014;-60
2022/04/01 08:50:15;;;;;;;9.98;6.50;;;2.70;50.90;;;;;;7365199;19;20077;-61
2022/04/01 08:52:45;;;;;;;10.18;7.20;;;2.70;50.80;;;;;;7361558;19;20021;-60
2022/04/01 08:55:15;;;;;;;10.60;6.55;;;2.80;52.50;;;;;;7364397;19;20382;-60
2022/04/01 08:57:45;;;;;;;10.20;6.45;;;2.70;51.50;;;;;;7365188;19;20050;-61
2022/04/01 09:00:37;;;;;;;10.88;6.07;;;2.90;52.60;;;;;;7365708;19;20011;-60
2022/04/01 09:03:10;;;;;;;10.63;6.57;;;2.70;50.40;;;;;;7364477;19;20015;-61
2022/04/01 09:05:46;;;;;;;11.20;6.38;;;2.80;52.50;;;;;;7383062;19;20027;-60
2022/04/01 09:08:17;;;;;;;12.02;7.25;;;2.80;51.30;;;;;;7367233;19;20012;-60
2022/04/01 09:11:01;;;;;;;14.30;8.02;;;2.70;51.90;;;;;;7364298;19;20073;-60
2022/04/01 09:13:50;;;;;;;12.82;8.00;;;2.80;52.50;;;;;;7365627;19;20029;-59
2022/04/01 09:16:28;;;;;;;13.07;7.57;;;3.00;53.40;;;;;;7364072;19;20086;-60
2022/04/01 09:19:00;;;;;;;13.52;8.38;;;2.90;52.50;;;;;;7364967;19;20116;-61
2022/04/01 09:21:34;;;;;;;13.88;7.97;;;3.00;52.70;;;;;;7361870;19;20395;-61
2022/04/01 09:24:04;;;;;;;12.38;8.57;;;2.70;50.60;;;;;;7363388;19;20461;-59
2022/04/01 09:26:37;;;;;;;13.27;8.13;;;2.80;49.80;;;;;;7386292;19;20458;-60
2022/04/01 09:29:08;;;;;;;14.00;8.35;;;2.70;52.30;;;;;;7364663;19;20524;-60
2022/04/01 09:31:41;;;;;;;12.57;8.05;;;2.90;52.50;;;;;;7362375;19;20006;-60
2022/04/01 09:34:14;;;;;;;13.70;8.02;;;2.80;51.30;;;;;;7364158;19;20483;-60
2022/04/01 09:36:47;;;;;;;9.35;6.38;;;2.80;50.40;;;;;;7363494;19;20105;-60
2022/04/01 09:39:18;;;;;;;12.35;7.47;;;2.70;50.00;;;;;;7362142;19;20010;-60
2022/04/01 09:41:52;;;;;;;12.32;6.97;;;2.80;51.20;;;;;;7361856;19;20048;-60
2022/04/01 09:44:29;;;;;;;10.52;6.85;;;2.60;48.90;;;;;;7385613;19;20113;-60
2022/04/01 09:47:01;;;;;;;9.82;6.53;;;2.70;49.60;;;;;;7361622;19;20494;-60
2022/04/01 09:49:38;;;;;;;10.48;6.95;;;2.70;49.40;;;;;;7364048;19;20028;-61
2022/04/01 09:52:14;;;;;;;10.30;6.93;;;2.90;51.30;;;;;;7357519;19;20013;-60
2022/04/01 09:54:48;;;;;;;9.65;6.38;;;2.80;49.10;;;;;;7363391;19;20063;-60
2022/04/01 09:57:19;;;;;;;13.32;8.43;;;2.70;50.90;;;;;;7363172;19;20011;-60
2022/04/01 09:59:51;;;;;;;12.55;7.05;;;2.70;50.50;;;;;;7363669;19;20107;-61
2022/04/01 10:02:21;;;;;;;10.07;7.18;;;2.80;51.40;;;;;;7381909;19;20027;-60
2022/04/01 10:04:53;;;;;;;9.43;6.68;;;2.60;49.80;;;;;;7360714;19;20029;-61
2022/04/01 10:07:28;;;;;;;9.85;6.38;;;2.70;52.30;;;;;;7360175;19;20015;-61
2022/04/01 10:09:59;;;;;;;7.97;5.13;;;2.80;52.40;;;;;;7364138;19;20017;-60
2022/04/01 10:12:36;;;;;;;7.82;5.80;;;2.70;48.50;;;;;;7359338;19;20038;-60
2022/04/01 10:15:10;;;;;;;7.18;5.68;;;2.80;49.40;;;;;;7362669;19;20018;-61
2022/04/01 10:17:58;;;;;;;8.57;6.25;;;2.80;49.00;;;;;;7361646;19;20019;-61
2022/04/01 10:20:33;;;;;;;8.18;5.90;;;3.00;49.70;;;;;;7383198;19;20030;-61
2022/04/01 10:23:08;;;;;;;6.75;5.38;;;2.80;47.90;;;;;;7359026;19;20011;-60
2022/04/01 10:25:46;;;;;;;7.25;5.32;;;2.80;47.00;;;;;;7358792;19;20486;-61
2022/04/01 10:28:17;;;;;;;8.57;6.53;;;2.70;47.00;;;;;;7362838;19;20094;-61
2022/04/01 10:30:54;;;;;;;8.30;5.88;;;2.90;49.60;;;;;;7359558;19;20148;-60
2022/04/01 10:33:26;;;;;;;8.40;6.35;;;2.90;48.40;;;;;;7360916;19;20159;-60
2022/04/01 10:35:57;;;;;;;10.05;6.32;;;2.80;48.40;;;;;;7360546;19;20026;-60
2022/04/01 10:38:33;;;;;;;8.13;6.25;;;2.90;49.30;;;;;;7383348;19;20011;-60
2022/04/01 10:41:12;;;;;;;8.98;6.25;;;3.00;49.20;;;;;;7358108;19;20384;-61
2022/04/01 10:43:45;;;;;;;9.15;6.68;;;2.90;48.40;;;;;;7360739;19;20015;-61
2022/04/01 10:46:17;;;;;;;9.07;6.78;;;3.00;48.30;;;;;;7359627;19;20402;-61
2022/04/01 10:52:04;;;;;;;11.30;7.85;;;3.10;49.70;;;;;;7354620;19;20010;-62
2022/04/01 10:54:42;;;;;;;8.55;6.90;;;3.00;49.50;;;;;;7360077;19;20035;-61
2022/04/01 10:57:15;;;;;;;9.73;7.20;;;3.00;48.70;;;;;;7358998;19;20053;-61
2022/04/01 10:59:47;;;;;;;10.55;7.57;;;2.70;48.00;;;;;;7360269;19;20019;-61
2022/04/01 11:02:21;;;;;;;10.73;7.25;;;2.60;49.40;;;;;;7378738;19;20022;-60
2022/04/01 11:04:53;;;;;;;8.48;6.72;;;2.70;49.50;;;;;;7359769;19;20014;-62
2022/04/01 11:07:36;;;;;;;8.88;6.65;;;2.60;48.30;;;;;;7358920;19;20013;-61
2022/04/01 11:10:10;;;;;;;8.95;6.70;;;2.60;47.80;;;;;;7361619;19;20493;-61
2022/04/01 11:12:42;;;;;;;9.95;7.53;;;2.80;48.50;;;;;;7357478;19;20290;-60
2022/04/01 11:15:20;;;;;;;8.88;7.18;;;2.70;46.30;;;;;;7359946;19;20010;-60
2022/04/01 11:18:06;;;;;;;8.18;6.45;;;2.80;46.40;;;;;;7359061;19;20494;-62
2022/04/01 11:20:39;;;;;;;10.55;7.40;;;2.70;46.20;;;;;;7379154;19;20010;-61
2022/04/01 11:23:11;;;;;;;9.50;7.32;;;2.70;46.40;;;;;;7359986;19;20007;-61
2022/04/01 11:25:55;;;;;;;10.77;7.47;;;2.80;47.30;;;;;;7356521;19;20021;-61
2022/04/01 11:28:30;;;;;;;9.50;7.00;;;2.80;48.40;;;;;;7359618;19;20021;-61
2022/04/01 11:31:11;;;;;;;11.38;6.90;;;2.70;45.20;;;;;;7358590;19;20010;-61
2022/04/01 11:33:41;;;;;;;8.90;6.72;;;2.60;46.20;;;;;;7361380;19;20019;-62
2022/04/01 11:36:11;;;;;;;8.65;6.70;;;2.60;45.50;;;;;;7359814;19;20017;-61
2022/04/01 11:38:48;;;;;;;9.50;6.72;;;2.80;45.10;;;;;;7382659;19;20017;-61
2022/04/01 11:41:21;;;;;;;9.15;7.32;;;2.60;44.30;;;;;;7354560;19;20010;-62
2022/04/01 11:43:52;;;;;;;9.97;6.93;;;2.70;44.40;;;;;;7359896;19;20032;-61
2022/04/01 11:46:21;;;;;;;10.02;8.15;;;2.60;45.10;;;;;;7360878;19;20255;-61
2022/04/01 11:48:52;;;;;;;10.95;7.47;;;2.30;44.40;;;;;;7360011;19;20014;-61
2022/04/01 11:51:24;;;;;;;10.68;8.43;;;2.40;46.50;;;;;;7355464;19;20011;-61
2022/04/01 11:53:56;;;;;;;11.55;8.40;;;2.40;47.30;;;;;;7359850;19;20019;-61
2022/04/01 11:56:30;;;;;;;11.20;8.82;;;2.50;46.60;;;;;;7379329;19;20045;-61
2022/04/01 11:59:03;;;;;;;11.15;8.23;;;2.50;45.20;;;;;;7358083;19;20770;-60
2022/04/01 12:01:35;;;;;;;13.70;9.10;;;2.70;46.00;;;;;;7356021;19;20062;-60
2022/04/01 12:04:07;;;;;;;12.52;9.07;;;2.60;45.60;;;;;;7358315;19;20093;-59
2022/04/01 12:09:20;;;;;;;12.82;9.13;;;2.60;46.40;;;;;;7359752;19;20331;-61
2022/04/01 12:12:02;;;;;;;12.95;9.15;;;2.50;44.70;;;;;;7354270;19;20015;-62
2022/04/01 12:14:33;;;;;;;11.82;8.70;;;2.60;46.70;;;;;;7378635;19;20018;-63
2022/04/01 12:17:07;;;;;;;14.35;9.93;;;2.50;45.00;;;;;;7354396;19;20025;-61
2022/04/01 12:19:37;;;;;;;;;;;2.60;47.50;;;;;;7357804;19;20019;-62
2022/04/01 12:22:08;;;;;;;14.15;10.45;;;2.50;47.40;;;;;;7355082;19;19933;-62
2022/04/01 12:24:38;;;;;;;14.55;10.07;;;2.50;48.30;;;;;;7358620;19;20028;-62
2022/04/01 12:27:11;;;;;;;16.17;11.10;;;2.40;47.40;;;;;;7355854;19;20022;-60
2022/04/01 12:29:47;;;;;;;16.33;11.60;;;2.20;46.80;;;;;;7362579;19;20014;-62
2022/04/01 12:32:19;;;;;;;16.83;11.35;;;2.30;48.80;;;;;;7383297;19;20721;-64
2022/04/01 12:34:50;;;;;;;18.63;11.55;;;2.20;49.70;;;;;;7364692;19;20013;-61
2022/04/01 12:37:20;;;;;;;18.27;12.50;;;2.20;51.30;;;;;;7364081;19;20530;-61
2022/04/01 12:40:00;;;;;;;20.20;12.88;;;2.30;52.00;;;;;;7365819;19;20491;-61
2022/04/01 12:42:39;;;;;;;17.60;12.35;;;2.20;51.90;;;;;;7361080;19;20018;-62
2022/04/01 12:45:14;;;;;;;20.40;13.18;;;1.90;50.30;;;;;;7365157;19;20010;-60
2022/04/01 12:47:44;;;;;;;18.15;12.93;;;1.90;50.40;;;;;;7368776;19;20017;-61
2022/04/01 12:50:33;;;;;;;17.65;11.95;;;1.90;50.40;;;;;;7387170;19;20449;-61
2022/04/01 12:53:15;;;;;;;18.92;12.48;;;1.90;46.90;;;;;;7361503;19;20082;-61
2022/04/01 12:55:45;;;;;;;20.20;13.43;;;1.90;46.50;;;;;;7361969;19;20010;-62
2022/04/01 12:58:17;;;;;;;18.58;12.75;;;2.00;47.80;;;;;;7366714;19;20014;-61
2022/04/01 13:00:47;;;;;;;19.17;12.30;;;2.20;47.80;;;;;;7361201;19;20403;-61
2022/04/01 13:03:17;;;;;;;19.02;13.55;;;2.10;47.90;;;;;;7364487;19;20014;-60
2022/04/01 13:05:48;;;;;;;18.52;12.15;;;2.10;47.10;;;;;;7360160;19;20011;-62
2022/04/01 13:08:32;;;;;;;19.73;13.38;;;2.10;48.50;;;;;;7389505;19;20349;-60
2022/04/01 13:11:11;;;;;;;;;;;2.00;49.30;;;;;;7363542;19;20025;-61
2022/04/01 13:13:44;;;;;;;21.20;14.75;;;2.10;48.10;;;;;;7362725;19;19914;-60
2022/04/01 13:16:16;;;;;;;20.02;14.07;;;2.20;49.00;;;;;;7363052;19;20014;-61
2022/04/01 13:18:46;;;;;;;21.13;13.93;;;2.10;48.80;;;;;;7364099;19;20010;-60
2022/04/01 13:21:16;;;;;;;19.25;12.70;;;2.00;48.00;;;;;;7362044;19;20010;-61
2022/04/01 13:23:46;;;;;;;19.45;12.70;;;2.00;47.10;;;;;;7365065;19;20022;-61
2022/04/01 13:26:24;;;;;;;18.98;12.90;;;2.00;48.30;;;;;;7384209;19;20015;-61